METAR

ENBN 222150Z AUTO 14009KT 9999NDV NCD 18/07 Q1016

ENMS 222150Z AUTO VRB02KT 9999 NCD 12/06 Q1017 RMK WIND 412FT VRB02KT

ENNM 222150Z AUTO 14010KT 9999 NCD 22/01 Q1016

ENOL 222150Z 10003KT CAVOK 15/10 Q1015

ENST 222050Z 06007KT CAVOK 16/07 Q1016 RMK WIND 300FT 07007KT

ENVA 222150Z 13006KT CAVOK 20/01 Q1016 RMK WIND 670FT 15012KT



TAF

TAF ENVA 221700Z 2218/2318 16009KT CAVOK TEMPO 2218/2314 17015G25KT